• Join FlightAware (Why Join?)
  • Login
  • US Flag 
12:11PM EST


 

Airport Tracker/Info


-or-


 

Live Flight TrackerFlight Track Log ✈ KAP644 ✈ 12-Jun-2013 ✈ KMVY - KBOS

Flight Track Log - Related Links

Times and Time Zones

All times are in EDT time to prevent confusion due to time zone crossing. See the KAP644 flight status page for this flight to view local times or setup timezone preferences in your user account.

Time Position Orientation Groundspeed Altitude Reporting Facility
EDT Latitude Longitude Course Direction KTS MPH feet Rate Location/Type
08:54AM 41.6399 -70.5941 North  Level FlightAware Approximate
08:55AM 41.6826 -70.5896 North  Level FlightAware Approximate
08:55AM 41.6500 -70.7000 340° North 146 168 4,100  Level KA90
08:56AM 41.7253 -70.5851 North  Level FlightAware Approximate
08:57AM 41.7679 -70.5806 North  Level FlightAware Approximate
08:57AM 41.7000 -70.7333 334° Northwest 147 169 4,000  Level KA90
08:57AM 41.7333 -70.7500 340° North 148 170 4,100  Climbing KA90
08:58AM 41.8106 -70.5761 North  Level FlightAware Approximate
08:58AM 41.7833 -70.7500 360° North 162 186 4,100  Level KA90
08:59AM 41.8532 -70.5716 North  Level FlightAware Approximate
08:59AM 41.8167 -70.7500 360° North 154 177 4,100  Level KA90
09:00AM 41.8959 -70.5671 North  Level FlightAware Approximate
09:01AM 41.8667 -70.7333 14° North 154 177 4,100  Level KA90
09:01AM 41.9000 -70.7333 360° North 153 176 4,100  Level KA90
09:02AM 41.9500 -70.7333 360° North 154 177 4,100  Level KA90
09:03AM 41.9833 -70.7333 360° North 149 171 4,100 180 Level KA90
09:04AM 42.0000 -70.7667 304° West 127 146 4,500 360 Climbing KA90
09:05AM 42.0167 -70.8000 304° West 128 147 4,800 300 Climbing KA90
09:06AM 42.0500 -70.8500 312° West 128 147 5,100 120 Climbing KA90
09:07AM 42.0667 -70.8833 304° West 144 166 5,100  Level KA90
09:08AM 42.1000 -70.9333 312° West 147 169 5,100  Level KA90
09:09AM 42.1167 -70.9667 304° West 149 171 5,100  Level KA90
09:10AM 42.1333 -71.0167 294° West 145 167 5,100  Level KA90
09:11AM 42.1667 -71.0500 323° Northwest 149 171 5,100  Level KA90
09:12AM 42.2000 -71.0833 323° Northwest 154 177 5,100  Level KA90
09:13AM 42.2333 -71.1000 340° North 152 175 5,100  Level KA90
09:14AM 42.2833 -71.1000 360° North 153 176 5,100  Level KA90
09:15AM 42.3167 -71.1000 360° North 152 175 5,100  Level KA90
09:16AM 42.3667 -71.1167 346° North 154 177 5,100 -180 Level KA90
09:17AM 42.4167 -71.0833 26° Northeast 161 185 4,800 -480 Descending KA90
09:18AM 42.4500 -71.0500 36° Northeast 170 196 4,100 -660 Descending KA90
09:19AM 42.5000 -71.0333 14° North 166 191 3,500 -660 Descending KA90
09:20AM 42.5000 -70.9667 90° East 203 234 2,800 -840 Descending KA90
09:21AM 42.4500 -70.9500 166° South 201 231 1,900 -840 Descending KA90
09:22AM 42.4167 -70.9833 216° Southwest 171 197 1,300 -900 Descending KA90
09:23AM 42.3833 -71.0000 200° South 148 170 200 -1,140 Descending KA90
09:26AM 42.3630 -71.0064 189° South  Level Estimated